Time;durP1;ratioP1;P1;durP2;ratioP2;P2;SDS_P1;SDS_P2;PMS_P1;PMS_P2;Temp;Humidity;BMP_temperature;BMP_pressure;BME280_temperature;BME280_humidity;BME280_pressure;Samples;Min_cycle;Max_cycle;Signal;HPM_P1;HPM_P2
2023/01/06 00:00:36;;;;;;;1.10;0.50;;;;;;;18.56;51.04;101692.41;5042140;28;20497;-71
2023/01/06 00:03:01;;;;;;;3.20;0.80;;;;;;;18.55;51.12;101696.13;5041728;28;20033;-70
2023/01/06 00:05:30;;;;;;;1.17;0.52;;;;;;;18.56;50.85;101700.56;5042782;28;20043;-73
2023/01/06 00:07:55;;;;;;;2.35;0.43;;;;;;;18.52;50.99;101691.88;5026382;28;20144;-72
2023/01/06 00:10:22;;;;;;;2.92;0.40;;;;;;;18.53;50.77;101692.75;5023747;28;20496;-71
2023/01/06 00:12:48;;;;;;;3.88;0.82;;;;;;;18.53;50.89;101687.31;5043146;28;20021;-71
2023/01/06 00:15:14;;;;;;;2.85;0.40;;;;;;;18.51;50.43;101686.59;5025635;28;20045;-71
2023/01/06 00:17:40;;;;;;;3.58;0.68;;;;;;;18.52;50.70;101682.88;5044662;28;20029;-71
2023/01/06 00:20:06;;;;;;;4.90;0.55;;;;;;;18.50;50.49;101677.63;5042901;28;20033;-72
2023/01/06 00:22:32;;;;;;;1.60;0.45;;;;;;;18.52;50.85;101688.31;5006574;28;20056;-72
2023/01/06 00:24:57;;;;;;;5.20;0.73;;;;;;;18.50;50.67;101684.91;5015023;28;20041;-71
2023/01/06 00:27:23;;;;;;;1.70;0.60;;;;;;;18.51;50.58;101683.88;5033101;28;20029;-70
2023/01/06 00:29:49;;;;;;;3.35;0.70;;;;;;;18.52;50.63;101682.88;5032567;28;20470;-71
2023/01/06 00:32:15;;;;;;;2.53;0.70;;;;;;;18.51;50.20;101678.44;5032544;28;20049;-71
2023/01/06 00:34:41;;;;;;;1.33;0.47;;;;;;;18.52;50.39;101678.31;5032654;28;20038;-71
2023/01/06 00:37:06;;;;;;;1.88;0.43;;;;;;;18.52;50.37;101672.03;5032412;28;20042;-71
2023/01/06 00:39:31;;;;;;;1.00;0.50;;;;;;;18.51;50.40;101662.16;5032881;28;20026;-71
2023/01/06 00:42:02;;;;;;;1.45;0.70;;;;;;;18.52;50.07;101653.03;5036925;28;20059;-72
2023/01/06 00:44:36;;;;;;;3.53;0.90;;;;;;;18.50;50.27;101655.91;5052106;28;20094;-72
2023/01/06 00:47:04;;;;;;;2.45;0.50;;;;;;;18.49;50.01;101656.06;5052329;28;20068;-72
2023/01/06 00:49:29;;;;;;;2.10;0.65;;;;;;;18.48;50.09;101651.66;5052345;28;20033;-71
2023/01/06 00:51:54;;;;;;;0.57;0.40;;;;;;;18.47;49.81;101655.34;5034525;28;20628;-70
2023/01/06 00:54:20;;;;;;;4.05;0.90;;;;;;;18.49;50.14;101653.34;5052658;28;20029;-70
2023/01/06 00:56:49;;;;;;;2.33;0.60;;;;;;;18.47;50.30;101645.34;5034446;28;20040;-72
2023/01/06 00:59:17;;;;;;;0.40;0.40;;;;;;;18.47;49.83;101650.78;5052146;28;20037;-71
2023/01/06 01:01:44;;;;;;;1.65;0.88;;;;;;;18.46;49.92;101649.06;5034449;28;20025;-71
2023/01/06 01:04:09;;;;;;;1.35;0.80;;;;;;;18.44;49.94;101644.81;5034426;28;20040;-70
2023/01/06 01:06:36;;;;;;;2.33;0.80;;;;;;;18.41;50.28;101642.41;5035074;28;20141;-72
2023/01/06 01:09:02;;;;;;;1.15;0.50;;;;;;;18.37;49.28;101646.47;5052199;28;20033;-72
2023/01/06 01:14:13;;;;;;;2.53;0.57;;;;;;;18.35;49.73;101653.91;5052095;28;20032;-72
2023/01/06 01:16:39;;;;;;;1.20;0.77;;;;;;;18.32;49.83;101646.06;5052208;28;20106;-71
2023/01/06 01:19:04;;;;;;;4.10;0.63;;;;;;;18.29;49.33;101652.69;5034010;28;20079;-70
2023/01/06 01:21:30;;;;;;;2.25;0.75;;;;;;;18.30;49.78;101656.25;5034444;28;20021;-71
2023/01/06 01:23:55;;;;;;;4.90;0.52;;;;;;;18.24;49.65;101654.16;5017621;28;20454;-71
2023/01/06 01:26:21;;;;;;;2.58;0.57;;;;;;;18.24;49.38;101657.72;5033832;28;20056;-71
2023/01/06 01:28:46;;;;;;;2.28;0.60;;;;;;;18.25;49.95;101655.88;5034176;28;20123;-70
2023/01/06 01:31:12;;;;;;;4.10;0.52;;;;;;;18.24;49.47;101654.16;5034435;28;20500;-72
2023/01/06 01:33:38;;;;;;;4.13;0.70;;;;;;;18.22;49.73;101648.06;5051992;28;20408;-71
2023/01/06 01:36:08;;;;;;;0.52;0.47;;;;;;;18.22;49.17;101650.78;5051722;28;20044;-72
2023/01/06 01:38:34;;;;;;;3.40;0.60;;;;;;;18.20;50.22;101653.63;5036134;28;20036;-70
2023/01/06 01:41:00;;;;;;;1.95;0.60;;;;;;;18.22;49.35;101640.78;5039368;28;20041;-70
2023/01/06 01:43:42;;;;;;;5.15;0.63;;;;;;;18.23;49.55;101647.06;5056584;28;20439;-71
2023/01/06 01:46:07;;;;;;;3.90;0.88;;;;;;;18.24;49.24;101643.31;5039066;28;20027;-72
2023/01/06 01:48:34;;;;;;;1.45;0.60;;;;;;;18.26;49.54;101638.56;5039369;28;20100;-71
2023/01/06 01:51:03;;;;;;;2.67;0.70;;;;;;;18.28;49.49;101644.72;5056596;28;20044;-70
2023/01/06 01:53:34;;;;;;;4.75;0.50;;;;;;;18.27;49.50;101626.72;5038871;28;20090;-70
2023/01/06 01:56:03;;;;;;;2.25;0.40;;;;;;;18.27;49.62;101629.44;5039006;28;20120;-72
2023/01/06 01:58:45;;;;;;;0.70;0.40;;;;;;;18.25;49.85;101626.03;5038747;28;20033;-72
2023/01/06 02:01:11;;;;;;;2.47;0.40;;;;;;;18.24;48.88;101632.47;5056379;28;20028;-71
2023/01/06 02:03:38;;;;;;;2.28;0.30;;;;;;;18.25;49.04;101623.34;5057059;28;20051;-71
2023/01/06 02:06:05;;;;;;;0.70;0.30;;;;;;;18.25;48.93;101629.59;5056380;28;20470;-71
2023/01/06 02:08:35;;;;;;;1.42;0.43;;;;;;;18.25;49.14;101623.34;5038427;28;20400;-71
2023/01/06 02:11:01;;;;;;;1.77;0.90;;;;;;;18.27;48.61;101626.72;5056355;28;20037;-71
2023/01/06 02:13:27;;;;;;;1.55;0.30;;;;;;;18.25;49.32;101624.19;5038659;28;20129;-71
2023/01/06 02:16:08;;;;;;;4.43;0.32;;;;;;;18.24;48.62;101621.63;5038602;28;20032;-71
2023/01/06 02:18:40;;;;;;;4.75;0.60;;;;;;;18.22;49.11;101621.78;5038913;28;20052;-72
2023/01/06 02:21:26;;;;;;;1.60;0.50;;;;;;;18.21;48.84;101621.94;5055996;28;20037;-71
2023/01/06 02:24:09;;;;;;;0.65;0.38;;;;;;;18.22;48.72;101618.22;5056105;28;20057;-71
2023/01/06 02:26:43;;;;;;;;;;;;;;;18.24;49.50;101621.63;5056483;28;20461;-71
2023/01/06 02:29:36;;;;;;;1.75;0.55;;;;;;;18.23;48.61;101609.91;5056291;28;19913;-70
2023/01/06 02:32:15;;;;;;;0.73;0.43;;;;;;;18.22;48.96;101599.25;5056046;28;20060;-72
2023/01/06 02:35:06;;;;;;;1.27;0.65;;;;;;;18.19;48.93;101594.13;5036710;28;20396;-70
2023/01/06 02:37:51;;;;;;;3.33;0.43;;;;;;;18.16;49.53;101575.47;5035727;28;20025;-70
2023/01/06 02:40:26;;;;;;;2.10;0.47;;;;;;;18.13;48.86;101570.34;5035747;28;20040;-71
2023/01/06 02:43:09;;;;;;;0.88;0.32;;;;;;;18.13;49.15;101573.94;5018243;28;20049;-70
2023/01/06 02:45:35;;;;;;;0.82;0.50;;;;;;;18.14;48.62;101580.22;5035810;28;20053;-71
2023/01/06 02:48:08;;;;;;;1.42;0.80;;;;;;;18.14;49.31;101572.06;5035928;28;20045;-71
2023/01/06 02:50:38;;;;;;;0.93;0.43;;;;;;;18.16;49.03;101570.03;5035512;28;20497;-71
2023/01/06 02:53:20;;;;;;;3.05;0.50;;;;;;;18.17;49.37;101569.91;5035555;28;20037;-70
2023/01/06 02:55:47;;;;;;;2.10;0.50;;;;;;;18.15;48.88;101568.31;5035569;28;20061;-71
2023/01/06 02:58:39;;;;;;;4.95;0.63;;;;;;;18.15;48.89;101569.19;5017675;28;20096;-71
2023/01/06 03:01:12;;;;;;;2.25;0.70;;;;;;;18.15;49.15;101571.91;5001319;28;20040;-70
2023/01/06 03:03:40;;;;;;;2.05;0.40;;;;;;;18.14;48.70;101564.78;5018170;28;20104;-72
2023/01/06 03:06:08;;;;;;;5.57;0.77;;;;;;;18.14;49.31;101570.22;5017594;28;20113;-70
2023/01/06 03:08:34;;;;;;;7.38;0.60;;;;;;;18.14;48.71;101558.50;5017482;28;20470;-71
2023/01/06 03:11:00;;;;;;;2.25;0.50;;;;;;;18.15;48.53;101550.19;5017636;28;20044;-71
2023/01/06 03:13:36;;;;;;;2.75;0.40;;;;;;;18.13;49.01;101543.25;5017387;28;20037;-72
2023/01/06 03:16:02;;;;;;;7.65;0.57;;;;;;;18.10;48.72;101540.84;5035012;28;20508;-71
2023/01/06 03:18:29;;;;;;;0.60;0.57;;;;;;;18.09;49.17;101536.47;5017649;28;20117;-71
2023/01/06 03:20:57;;;;;;;4.32;0.50;;;;;;;18.08;48.97;101538.31;5000976;28;20133;-71
2023/01/06 03:23:22;;;;;;;1.13;0.32;;;;;;;18.06;49.46;101536.78;5017241;28;20034;-72
2023/01/06 03:25:48;;;;;;;1.00;0.30;;;;;;;18.06;49.43;101540.34;5017172;28;20040;-72
2023/01/06 03:28:13;;;;;;;0.73;0.45;;;;;;;18.04;48.55;101536.91;5034771;28;20041;-72
2023/01/06 03:31:23;;;;;;;3.72;0.40;;;;;;;18.07;49.38;101538.44;5017609;28;20064;-71
2023/01/06 03:34:26;;;;;;;1.48;0.40;;;;;;;18.02;49.20;101539.81;5030216;28;20042;-70
2023/01/06 03:37:18;;;;;;;2.97;0.50;;;;;;;17.98;48.72;101530.28;5027067;28;20374;-71
2023/01/06 03:39:53;;;;;;;2.80;0.35;;;;;;;17.98;49.24;101532.97;5034887;28;20044;-72
2023/01/06 03:45:43;;;;;;;2.28;0.52;;;;;;;18.02;48.60;101534.38;5034644;28;20079;-71
2023/01/06 03:48:27;;;;;;;2.03;0.47;;;;;;;18.02;49.22;101539.81;5016703;28;20033;-72
2023/01/06 03:51:01;;;;;;;0.30;0.28;;;;;;;18.02;48.73;101542.50;5034477;28;20045;-72
2023/01/06 03:53:34;;;;;;;0.80;0.55;;;;;;;18.02;48.99;101545.22;5034328;28;20029;-71
2023/01/06 03:56:20;;;;;;;;;;;;;;;18.02;48.90;101550.66;5034805;28;20111;-70
2023/01/06 03:58:47;;;;;;;0.52;0.30;;;;;;;17.99;49.32;101537.41;5026791;28;19928;-71
2023/01/06 04:01:14;;;;;;;0.32;0.20;;;;;;;18.01;48.14;101532.66;5016324;28;20473;-70
2023/01/06 04:03:43;;;;;;;2.50;0.30;;;;;;;18.01;49.13;101532.66;5034586;28;20543;-72
2023/01/06 04:06:09;;;;;;;3.72;0.50;;;;;;;18.02;48.96;101537.09;5016774;28;20037;-72
2023/01/06 04:08:34;;;;;;;1.40;0.50;;;;;;;18.02;48.61;101531.66;5034053;28;20512;-70
2023/01/06 04:10:59;;;;;;;1.17;0.40;;;;;;;18.00;48.80;101533.69;5016290;28;20064;-72
2023/01/06 04:13:25;;;;;;;2.25;0.70;;;;;;;17.99;48.95;101525.72;5016342;28;20041;-70
2023/01/06 04:15:50;;;;;;;1.58;0.38;;;;;;;17.98;48.63;101530.28;5034574;28;20021;-71
2023/01/06 04:18:16;;;;;;;2.80;0.85;;;;;;;17.95;49.03;101530.59;5016115;28;20077;-70
2023/01/06 04:20:41;;;;;;;1.00;0.52;;;;;;;17.95;48.52;101527.88;5033715;28;20402;-72
2023/01/06 04:23:06;;;;;;;0.60;0.50;;;;;;;17.96;49.24;101529.59;5016279;28;20493;-71
2023/01/06 04:25:32;;;;;;;0.85;0.73;;;;;;;17.96;48.94;101521.47;5032623;28;20048;-71
2023/01/06 04:27:57;;;;;;;0.35;0.35;;;;;;;17.95;48.75;101519.75;5033796;28;20104;-71
2023/01/06 04:30:22;;;;;;;1.85;0.50;;;;;;;17.94;48.68;101523.47;5034137;28;20032;-71
2023/01/06 04:32:48;;;;;;;1.83;0.57;;;;;;;17.95;48.94;101525.16;5015843;28;20037;-70
2023/01/06 04:35:13;;;;;;;2.42;0.45;;;;;;;17.95;49.09;101522.44;5033326;28;20034;-71
2023/01/06 04:37:39;;;;;;;1.25;0.40;;;;;;;17.95;48.98;101514.31;5033583;28;20445;-70
2023/01/06 04:40:06;;;;;;;0.68;0.38;;;;;;;17.94;48.77;101509.06;5033705;28;20030;-70
2023/01/06 04:43:02;;;;;;;1.00;0.60;;;;;;;17.96;48.97;101488.06;5034211;28;20021;-70
2023/01/06 04:45:17;;;;;;;4.72;0.50;;;;;;;17.96;49.09;101496.19;5018695;28;20064;-72
2023/01/06 04:47:42;;;;;;;1.98;0.70;;;;;;;17.96;49.32;101499.78;5033358;28;20387;-72
2023/01/06 04:50:08;;;;;;;1.73;0.70;;;;;;;17.97;48.88;101503.34;5033438;28;20083;-71
2023/01/06 04:52:33;;;;;;;1.35;0.32;;;;;;;17.94;48.64;101499.09;5015824;28;20079;-71
2023/01/06 04:54:58;;;;;;;2.33;0.43;;;;;;;17.95;48.48;101503.47;5033409;28;20037;-72
2023/01/06 04:57:24;;;;;;;2.05;0.40;;;;;;;17.97;49.65;101498.78;5033562;28;20408;-70
2023/01/06 04:59:49;;;;;;;0.77;0.65;;;;;;;17.98;48.52;101491.47;5033248;28;20033;-71
2023/01/06 05:02:14;;;;;;;1.80;0.30;;;;;;;17.94;49.03;101504.50;5033116;28;20041;-70
2023/01/06 05:04:40;;;;;;;2.30;0.50;;;;;;;17.92;48.93;101508.41;5033146;28;20556;-70
2023/01/06 05:07:05;;;;;;;1.02;0.80;;;;;;;17.92;48.52;101509.22;5015291;28;20022;-71
2023/01/06 05:09:30;;;;;;;0.73;0.30;;;;;;;17.93;48.97;101504.66;5033474;28;20025;-71
2023/01/06 05:11:56;;;;;;;1.55;0.55;;;;;;;17.91;49.39;101502.13;5032701;28;20463;-71
2023/01/06 05:14:21;;;;;;;0.63;0.55;;;;;;;17.91;48.31;101504.81;5015218;28;20030;-70
2023/01/06 05:16:46;;;;;;;2.38;0.50;;;;;;;17.90;48.84;101500.41;4998828;28;20045;-72
2023/01/06 05:19:12;;;;;;;0.65;0.22;;;;;;;17.91;49.46;101496.69;5032818;28;20140;-72
2023/01/06 05:21:37;;;;;;;0.65;0.40;;;;;;;17.91;48.76;101485.00;5033304;28;20477;-71
2023/01/06 05:24:03;;;;;;;1.35;0.40;;;;;;;17.90;48.34;101481.44;5033025;28;20072;-71
2023/01/06 05:26:28;;;;;;;4.22;0.70;;;;;;;17.89;49.03;101479.75;5044164;28;20033;-72
2023/01/06 05:28:54;;;;;;;1.35;0.50;;;;;;;17.87;48.63;101473.63;5052681;28;20029;-71
2023/01/06 05:31:19;;;;;;;4.55;0.40;;;;;;;17.85;48.95;101467.50;5052677;28;20071;-71
2023/01/06 05:33:45;;;;;;;1.75;0.30;;;;;;;17.84;48.64;101473.94;5035495;28;20037;-71
2023/01/06 05:36:15;;;;;;;1.05;0.40;;;;;;;17.81;49.32;101476.97;5052590;28;20089;-70
2023/01/06 05:38:41;;;;;;;1.75;0.60;;;;;;;17.81;49.38;101471.53;5052718;28;20389;-71
2023/01/06 05:41:07;;;;;;;2.95;0.50;;;;;;;17.79;48.89;101473.56;5034857;28;20029;-71
2023/01/06 05:43:33;;;;;;;1.60;0.52;;;;;;;17.79;48.96;101464.59;5034603;28;20033;-71
2023/01/06 05:46:04;;;;;;;1.38;0.40;;;;;;;17.78;48.92;101457.47;5052712;28;20052;-71
2023/01/06 05:48:29;;;;;;;2.90;0.43;;;;;;;17.78;49.35;101466.44;5035100;28;20029;-70
2023/01/06 05:51:06;;;;;;;1.17;0.30;;;;;;;17.79;49.16;101465.44;5034759;28;20067;-71
2023/01/06 05:53:36;;;;;;;0.17;0.17;;;;;;;17.78;48.74;101474.56;5052686;28;20044;-71
2023/01/06 05:56:07;;;;;;;1.35;0.20;;;;;;;17.79;48.91;101470.00;5052610;28;20036;-70
2023/01/06 05:58:33;;;;;;;4.35;0.88;;;;;;;17.79;48.95;101468.16;5052058;28;20033;-71
2023/01/06 06:01:03;;;;;;;0.28;0.22;;;;;;;17.76;48.83;101464.91;5052570;28;20070;-70
2023/01/06 06:03:28;;;;;;;0.30;0.30;;;;;;;17.75;49.40;101468.63;5052843;28;20062;-71
2023/01/06 06:05:54;;;;;;;1.65;0.40;;;;;;;17.74;49.05;101466.94;5034814;28;20120;-71
2023/01/06 06:08:19;;;;;;;0.40;0.30;;;;;;;17.72;48.42;101464.41;5052363;28;20041;-72
2023/01/06 06:10:44;;;;;;;2.08;0.93;;;;;;;17.74;48.64;101464.22;5052319;28;20119;-72
2023/01/06 06:13:10;;;;;;;3.13;1.15;;;;;;;17.73;48.86;101466.06;5034556;28;20025;-70
2023/01/06 06:15:35;;;;;;;0.50;0.50;;;;;;;17.73;49.08;101476.91;5052620;28;20078;-72
2023/01/06 06:18:01;;;;;;;4.35;0.65;;;;;;;17.73;48.97;101473.34;5052390;28;20044;-71
2023/01/06 06:20:27;;;;;;;3.95;1.45;;;;;;;17.72;48.83;101464.41;5018364;28;20025;-72
2023/01/06 06:22:53;;;;;;;5.32;1.48;;;;;;;17.71;48.97;101467.25;5052474;28;20033;-70
2023/01/06 06:25:18;;;;;;;5.15;1.33;;;;;;;17.69;49.38;101475.56;5037546;28;20024;-70
2023/01/06 06:27:44;;;;;;;4.47;1.13;;;;;;;17.70;49.59;101485.34;5056362;28;20068;-70
2023/01/06 06:30:09;;;;;;;10.45;3.13;;;;;;;17.74;49.06;101494.88;5056124;28;20044;-70
2023/01/06 06:32:35;;;;;;;3.65;1.30;;;;;;;17.77;49.13;101497.28;5038012;28;20522;-71
2023/01/06 06:35:00;;;;;;;2.85;0.32;;;;;;;17.79;48.66;101489.84;5055856;28;20526;-71
2023/01/06 06:37:25;;;;;;;0.77;0.65;;;;;;;17.79;48.49;101481.69;5038058;28;20033;-70
2023/01/06 06:39:51;;;;;;;1.00;0.52;;;;;;;17.79;48.72;101480.84;5056586;28;20431;-71
2023/01/06 06:42:17;;;;;;;0.75;0.52;;;;;;;17.78;48.73;101474.56;5037721;28;20044;-70
2023/01/06 06:44:42;;;;;;;2.97;1.23;;;;;;;17.79;48.56;101476.28;5055812;28;20073;-72
2023/01/06 06:47:08;;;;;;;8.45;1.27;;;;;;;17.77;48.85;101472.88;5055623;28;20072;-71
2023/01/06 06:49:33;;;;;;;3.72;0.85;;;;;;;17.78;49.44;101471.03;5055381;28;20029;-71
2023/01/06 06:51:58;;;;;;;6.22;1.42;;;;;;;17.76;49.45;101465.75;5055444;28;20028;-68
2023/01/06 06:54:24;;;;;;;10.65;3.25;;;;;;;17.74;49.33;101462.38;5055893;28;20028;-70
2023/01/06 06:56:49;;;;;;;1.15;0.82;;;;;;;17.73;49.63;101459.81;5037522;28;20036;-70
2023/01/06 06:59:15;;;;;;;2.30;0.98;;;;;;;17.74;49.14;101458.81;5055180;28;20512;-70
2023/01/06 07:01:40;;;;;;;0.65;0.35;;;;;;;17.74;49.31;101462.38;5037532;28;20043;-71
2023/01/06 07:04:05;;;;;;;7.22;2.67;;;;;;;17.74;49.07;101472.34;5055425;28;20048;-71
2023/01/06 07:06:31;;;;;;;0.43;0.35;;;;;;;17.74;49.44;101465.06;5021380;28;20029;-71
2023/01/06 07:08:56;;;;;;;1.40;0.75;;;;;;;17.74;49.64;101462.38;5055264;28;20040;-71
2023/01/06 07:11:22;;;;;;;2.72;0.85;;;;;;;17.74;49.38;101470.50;5055290;28;20098;-71
2023/01/06 07:13:48;;;;;;;3.17;0.85;;;;;;;17.75;49.42;101479.47;5037747;28;20500;-70
2023/01/06 07:16:14;;;;;;;0.90;0.57;;;;;;;17.75;49.98;101480.34;5055375;28;20037;-70
2023/01/06 07:18:39;;;;;;;3.47;0.45;;;;;;;17.76;49.59;101482.03;5055888;28;20021;-70
2023/01/06 07:21:05;;;;;;;1.25;0.43;;;;;;;17.76;49.04;101486.59;5055095;28;20033;-71
2023/01/06 07:23:31;;;;;;;2.05;1.10;;;;;;;17.76;49.34;101492.84;5037219;28;20428;-70
2023/01/06 07:25:58;;;;;;;1.13;0.73;;;;;;;17.78;49.94;101477.28;5054873;28;20029;-70
2023/01/06 07:28:24;;;;;;;2.65;0.32;;;;;;;17.80;49.43;101480.69;5037171;28;20064;-70
2023/01/06 07:30:50;;;;;;;3.72;1.00;;;;;;;17.83;49.26;101479.53;5055681;28;20043;-70
2023/01/06 07:33:15;;;;;;;3.42;0.50;;;;;;;17.83;48.89;101493.94;5054656;28;20587;-69
2023/01/06 07:35:41;;;;;;;0.50;0.40;;;;;;;17.81;49.30;101490.50;5053603;28;20041;-71
2023/01/06 07:38:07;;;;;;;0.77;0.55;;;;;;;17.80;49.89;101496.97;5054710;28;20078;-70
2023/01/06 07:40:34;;;;;;;3.25;1.10;;;;;;;17.80;49.57;101499.69;5054753;28;20029;-70
2023/01/06 07:43:04;;;;;;;1.02;0.60;;;;;;;17.76;49.29;101492.84;5054666;28;20075;-69
2023/01/06 07:45:29;;;;;;;3.17;0.95;;;;;;;17.76;49.39;101506.41;5055263;28;20025;-70
2023/01/06 07:47:55;;;;;;;0.43;0.38;;;;;;;17.77;49.57;101505.41;5054596;28;20430;-70
2023/01/06 07:50:21;;;;;;;0.43;0.40;;;;;;;17.74;49.68;101500.31;5036864;28;20047;-70
2023/01/06 07:52:46;;;;;;;0.65;0.20;;;;;;;17.71;49.92;101508.75;5037091;28;20048;-69
2023/01/06 07:55:11;;;;;;;2.28;0.40;;;;;;;17.67;49.92;101507.34;5054563;28;20056;-69
2023/01/06 07:57:37;;;;;;;0.15;0.15;;;;;;;17.67;49.23;101504.66;5037212;28;20122;-70
2023/01/06 08:00:03;;;;;;;2.83;0.20;;;;;;;17.67;50.21;101507.34;5054172;28;20564;-69
2023/01/06 08:02:28;;;;;;;1.20;0.32;;;;;;;17.66;49.55;101512.94;5054378;28;20041;-70
2023/01/06 08:04:53;;;;;;;2.10;0.75;;;;;;;17.66;50.11;101508.38;5054091;28;20412;-72
2023/01/06 08:07:19;;;;;;;0.38;0.32;;;;;;;17.69;49.96;101513.50;5054118;28;20032;-70
2023/01/06 08:09:44;;;;;;;1.95;0.28;;;;;;;17.70;49.83;101520.59;5054436;28;20116;-71
2023/01/06 08:12:11;;;;;;;0.10;0.10;;;;;;;17.72;49.75;101524.00;5053882;28;20389;-71
2023/01/06 08:14:36;;;;;;;1.20;0.22;;;;;;;17.74;50.10;101526.56;5054170;28;20518;-70
2023/01/06 08:17:01;;;;;;;0.30;0.20;;;;;;;17.71;50.19;101525.00;5054128;28;20033;-70
2023/01/06 08:19:27;;;;;;;1.75;0.30;;;;;;;17.71;50.07;101535.84;5053671;28;20404;-71
2023/01/06 08:21:52;;;;;;;5.15;0.28;;;;;;;17.71;49.32;101532.28;5036274;28;20111;-71
2023/01/06 08:24:18;;;;;;;1.08;0.22;;;;;;;17.69;50.13;101540.59;5054390;28;20358;-71
2023/01/06 08:26:43;;;;;;;0.43;0.20;;;;;;;17.70;49.68;101539.56;5035987;28;20033;-70
2023/01/06 08:29:08;;;;;;;0.80;0.32;;;;;;;17.70;50.54;101536.03;5053668;28;20492;-71
2023/01/06 08:31:34;;;;;;;0.52;0.17;;;;;;;17.69;50.29;101543.28;5053967;28;20040;-70
2023/01/06 08:33:59;;;;;;;9.02;4.65;;;;;;;17.68;49.74;101551.56;5053695;28;20033;-71
2023/01/06 08:36:25;;;;;;;2.20;1.35;;;;;;;17.66;50.03;101559.88;5036101;28;20032;-71
2023/01/06 08:38:51;;;;;;;1.27;0.82;;;;;;;17.64;50.39;101552.91;5035760;28;20033;-71
2023/01/06 08:41:16;;;;;;;2.47;0.68;;;;;;;17.65;50.33;101555.44;5035822;28;20488;-71
2023/01/06 08:43:43;;;;;;;3.05;1.10;;;;;;;17.68;51.07;101555.13;5036247;28;20040;-70
2023/01/06 08:46:10;;;;;;;0.50;0.50;;;;;;;17.68;50.29;101554.28;5053382;28;20056;-70
2023/01/06 08:48:36;;;;;;;0.95;0.43;;;;;;;17.66;50.25;101542.75;5036318;28;20104;-71
2023/01/06 08:51:07;;;;;;;0.60;0.50;;;;;;;17.63;50.72;101554.75;5035609;28;20116;-71
2023/01/06 08:53:32;;;;;;;1.95;1.38;;;;;;;17.62;50.69;101563.03;5053372;28;20124;-70
2023/01/06 08:55:58;;;;;;;1.33;1.05;;;;;;;17.59;50.54;101571.50;5053410;28;20032;-70
2023/01/06 08:58:23;;;;;;;5.57;2.45;;;;;;;17.56;51.58;101572.63;5035400;28;20040;-70
2023/01/06 09:00:49;;;;;;;14.80;5.22;;;;;;;17.56;51.75;101566.38;5053469;28;20461;-71
2023/01/06 09:03:14;;;;;;;4.40;1.58;;;;;;;17.53;51.23;101567.53;5053093;28;20037;-71
2023/01/06 09:05:39;;;;;;;5.22;2.22;;;;;;;17.51;50.89;101572.22;5053040;28;20036;-71
2023/01/06 09:08:05;;;;;;;20.23;5.47;;;;;;;17.53;51.32;101580.22;5035264;28;20044;-70
2023/01/06 09:10:30;;;;;;;20.73;5.63;;;;;;;17.54;51.40;101580.06;5053204;28;20074;-70
2023/01/06 09:12:56;;;;;;;33.42;7.22;;;;;;;17.54;51.62;101585.50;5052870;28;20392;-71
2023/01/06 09:15:21;;;;;;;20.45;5.30;;;;;;;17.54;51.45;101588.19;5053319;28;20393;-70
2023/01/06 09:17:46;;;;;;;30.08;7.60;;;;;;;17.56;51.13;101588.06;5052819;28;20037;-72
2023/01/06 09:20:12;;;;;;;9.88;2.90;;;;;;;17.61;51.67;101581.16;5052734;28;20075;-71
2023/01/06 09:22:37;;;;;;;4.47;1.67;;;;;;;17.66;51.34;101580.69;5052815;28;20037;-70
2023/01/06 09:25:03;;;;;;;25.63;6.60;;;;;;;17.66;51.25;101584.25;5052785;28;20384;-70
2023/01/06 09:27:28;;;;;;;16.92;5.45;;;;;;;17.68;50.76;101593.06;5035650;28;20036;-71
2023/01/06 09:29:53;;;;;;;10.23;3.17;;;;;;;17.71;51.70;101584.63;5052740;28;20025;-72
2023/01/06 09:32:19;;;;;;;5.82;1.85;;;;;;;17.74;51.13;101597.88;5035069;28;20047;-71
2023/01/06 09:34:44;;;;;;;16.60;4.13;;;;;;;17.73;51.39;101585.31;5052573;28;20407;-72
2023/01/06 09:37:10;;;;;;;5.82;1.50;;;;;;;17.77;51.99;101592.13;5035077;28;20037;-70
2023/01/06 09:39:38;;;;;;;7.63;2.45;;;;;;;17.83;51.49;101590.66;5053302;28;20116;-72
2023/01/06 09:42:42;;;;;;;2.67;1.15;;;;;;;17.86;51.29;101599.34;5035291;28;20444;-71
2023/01/06 09:45:34;;;;;;;7.38;2.47;;;;;;;17.90;51.05;101605.25;4952318;29;20047;-71
2023/01/06 09:48:01;;;;;;;3.42;1.02;;;;;;;17.93;51.42;101607.66;4946355;29;20054;-71
2023/01/06 09:50:32;;;;;;;1.67;0.73;;;;;;;17.96;51.61;101612.78;4952620;29;20051;-71
2023/01/06 09:53:04;;;;;;;2.33;1.23;;;;;;;18.01;51.58;101616.72;4952561;29;20500;-72
2023/01/06 09:56:11;;;;;;;1.55;0.47;;;;;;;18.09;51.64;101617.81;4952439;29;20075;-71
2023/01/06 09:58:44;;;;;;;1.77;1.00;;;;;;;18.19;51.17;101619.41;4952604;28;20431;-71
2023/01/06 10:01:14;;;;;;;4.93;2.25;;;;;;;18.34;50.55;101627.81;4940255;28;20094;-70
2023/01/06 10:03:40;;;;;;;4.22;1.70;;;;;;;18.59;51.12;101633.22;4941041;29;20051;-70
2023/01/06 10:06:35;;;;;;;0.65;0.50;;;;;;;19.35;49.76;101637.75;4924444;29;20471;-72
2023/01/06 10:09:20;;;;;;;0.68;0.30;;;;;;;20.13;49.09;101626.28;4956204;29;20028;-70
2023/01/06 10:12:13;;;;;;;0.50;0.30;;;;;;;20.08;49.11;101642.28;4956261;28;20544;-71
2023/01/06 10:15:13;;;;;;;0.90;0.30;;;;;;;19.90;49.75;101624.44;4956106;29;20039;-71
2023/01/06 10:17:50;;;;;;;1.00;0.40;;;;;;;19.87;49.89;101630.22;4953003;29;20035;-72
2023/01/06 10:20:25;;;;;;;0.63;0.30;;;;;;;19.75;50.43;101632.44;5054307;28;20155;-71
2023/01/06 10:23:10;;;;;;;0.25;0.22;;;;;;;19.69;49.93;101633.97;5056154;28;20446;-70
2023/01/06 10:25:38;;;;;;;0.35;0.30;;;;;;;19.65;50.43;101632.56;5038223;28;20110;-71
2023/01/06 10:28:15;;;;;;;2.30;0.47;;;;;;;19.58;50.41;101634.28;5055821;28;20053;-70
2023/01/06 10:30:44;;;;;;;0.30;0.30;;;;;;;19.51;49.90;101632.41;5039954;28;20025;-69
2023/01/06 10:33:39;;;;;;;0.30;0.30;;;;;;;19.42;50.58;101625.25;5037138;28;20094;-71
2023/01/06 10:36:11;;;;;;;0.20;0.15;;;;;;;19.32;50.49;101625.34;5054501;28;20075;-72
2023/01/06 10:38:39;;;;;;;0.52;0.32;;;;;;;19.26;50.90;101623.34;5055654;28;20476;-69
2023/01/06 10:41:22;;;;;;;0.20;0.20;;;;;;;19.24;49.88;101625.34;5056563;28;20032;-71
2023/01/06 10:43:48;;;;;;;;;;;;;;;19.21;50.39;101622.13;5019736;28;20103;-71
2023/01/06 10:46:14;;;;;;;2.67;0.50;;;;;;;19.14;50.41;101632.78;5034672;28;20339;-72
2023/01/06 10:48:40;;;;;;;0.70;0.20;;;;;;;19.08;50.41;101634.31;5036028;28;20029;-70
2023/01/06 10:51:36;;;;;;;0.43;0.35;;;;;;;19.00;50.43;101631.56;5054018;28;20087;-70
2023/01/06 10:54:09;;;;;;;0.80;0.25;;;;;;;18.95;50.45;101623.06;5037721;28;20037;-70
2023/01/06 10:56:37;;;;;;;0.82;0.35;;;;;;;18.91;50.78;101618.97;5037670;28;20037;-70
2023/01/06 10:59:07;;;;;;;0.35;0.35;;;;;;;18.89;50.49;101622.84;5027856;28;20558;-70
2023/01/06 11:01:33;;;;;;;0.88;0.40;;;;;;;18.88;50.52;101622.00;5017823;28;20040;-70
2023/01/06 11:04:10;;;;;;;0.38;0.30;;;;;;;18.95;50.65;101622.22;5018938;28;20029;-70
2023/01/06 11:06:53;;;;;;;0.80;0.30;;;;;;;18.93;50.53;101625.06;5055640;28;20029;-70
2023/01/06 11:09:27;;;;;;;2.28;0.70;;;;;;;18.89;50.77;101623.72;5017944;28;20058;-70
2023/01/06 11:11:54;;;;;;;0.65;0.43;;;;;;;18.86;50.79;101624.03;5034005;28;20042;-71
2023/01/06 11:14:21;;;;;;;4.07;1.02;;;;;;;18.84;51.14;101626.06;5017993;28;20033;-71
2023/01/06 11:16:59;;;;;;;1.23;0.75;;;;;;;18.83;50.80;101631.66;5025768;28;20496;-70
2023/01/06 11:19:32;;;;;;;1.35;0.70;;;;;;;18.79;51.22;101622.97;5037820;28;20037;-70
2023/01/06 11:21:57;;;;;;;1.63;0.85;;;;;;;18.74;50.91;101619.91;5054822;28;20032;-71
2023/01/06 11:24:25;;;;;;;0.75;0.70;;;;;;;18.73;51.05;101618.22;5055311;28;20388;-70
2023/01/06 11:26:52;;;;;;;0.50;0.50;;;;;;;18.77;51.05;101627.72;5037065;28;20032;-70
2023/01/06 11:29:30;;;;;;;0.82;0.70;;;;;;;18.78;51.30;101623.16;5054927;28;20037;-71
2023/01/06 11:32:00;;;;;;;1.10;0.77;;;;;;;18.87;51.01;101622.19;5036987;28;20040;-71
2023/01/06 11:34:27;;;;;;;1.80;0.95;;;;;;;18.91;50.69;101627.09;5036865;28;20539;-71
2023/01/06 11:36:53;;;;;;;1.02;0.77;;;;;;;18.88;51.21;101626.56;5037775;28;20043;-70
2023/01/06 11:39:27;;;;;;;0.50;0.43;;;;;;;18.83;50.95;101624.38;5055987;28;20108;-71
2023/01/06 11:41:54;;;;;;;0.65;0.65;;;;;;;18.77;51.40;101627.72;5037155;28;20040;-72